12 minutes ago
Runway Headwind Crosswind Length
15/33 1 kt 6 kt 7,001 ft
METAR FMEP 151730Z AUTO 03007KT 9999 SCT082 OVC150 25/22 Q1014

METAR definition | Embed

METAR Pierrefonds Airport

Pierrefonds Airport is a midsized airport in St Pierre, Reunion. The airport has one runway: 15/33 (7,001 ft)

This report was made for Pierrefonds Airport on April 15, 2021 9:30 pm, local time.

Airport observations

The wind is from direction northnortheast (030°) with a speed of 7 kt.

Visibility is 6¼ mi or more.

There are scattered clouds at an altitude of 8,200 ft and overcast clouds at an altitude of 15,000 ft. The ceiling, broken or more, is 15,000 ft.

The temperature and wind chill are 77 °F. The dew point is 72 °F, the relative humidity is 83%. The air pressure at sea level is 29.94 inHg (QNH).

Daylight period

Today the sun rises at 6:30 am and sets at 6:06 pm. This applies to Pierrefonds Airport, the universal daylight period may be different. The difference between the local time and UTC is +4 hour. Daylight saving time is currently in progress.

Historical data

Donate

Will you help us to keep Metar-Taf.com running?
Your contribution helps further development of the site and to pay for the expenses.

No more ads

Are you donating $ 5 or more? Then we'll never show you ads again, as a token of our eternal gratitude!
Log in before you donate

Do you want the flying weather of Pierrefonds Airport on your website? Read more   Free!